Time;durP1;ratioP1;P1;durP2;ratioP2;P2;SDS_P1;SDS_P2;PMS_P1;PMS_P2;Temp;Humidity;BMP_temperature;BMP_pressure;BME280_temperature;BME280_humidity;BME280_pressure;Samples;Min_cycle;Max_cycle;Signal;HPM_P1;HPM_P2
2023/03/09 00:02:19;;;;;;;;;12.60;12.60;;;;;2.65;82.80;97255.41;5075330;28;8840;-59
2023/03/09 00:04:47;;;;;;;;;3.00;3.00;;;;;2.64;82.56;97261.63;5074833;28;8820;-59
2023/03/09 00:07:14;;;;;;;;;7.00;6.60;;;;;2.63;82.09;97259.97;5075028;28;8832;-59
2023/03/09 00:09:43;;;;;;;;;1.00;1.00;;;;;2.65;82.47;97247.53;5075412;28;8851;-60
2023/03/09 00:12:11;;;;;;;;;7.00;7.00;;;;;2.64;82.40;97261.63;5075000;28;8865;-59
2023/03/09 00:14:39;;;;;;;;;8.60;7.00;;;;;2.63;82.79;97249.47;5075005;28;8824;-58
2023/03/09 00:17:06;;;;;;;;;7.80;6.60;;;;;2.63;82.80;97257.34;5075483;28;9537;-61
2023/03/09 00:19:34;;;;;;;;;4.00;4.00;;;;;2.63;81.58;97262.59;5091532;28;8854;-59
2023/03/09 00:22:02;;;;;;;;;7.60;7.60;;;;;2.64;82.70;97263.44;5095302;28;8906;-60
2023/03/09 00:24:30;;;;;;;;;12.80;12.80;;;;;2.64;82.25;97256.38;5095473;28;8819;-60
2023/03/09 00:26:58;;;;;;;;;9.00;6.60;;;;;2.65;82.63;97255.41;5095378;28;8842;-58
2023/03/09 00:29:26;;;;;;;;;9.80;6.80;;;;;2.65;82.51;97260.66;5094990;28;8846;-60
2023/03/09 00:31:53;;;;;;;;;9.60;8.60;;;;;2.64;82.11;97248.50;5094389;28;8836;-61
2023/03/09 00:34:21;;;;;;;;;7.40;7.20;;;;;2.65;82.15;97258.03;5094796;28;8818;-60
2023/03/09 00:36:49;;;;;;;;;7.00;7.00;;;;;2.65;82.68;97258.03;5095134;28;8834;-60
2023/03/09 00:39:17;;;;;;;;;4.00;3.20;;;;;2.67;81.77;97255.28;5095228;28;9585;-58
2023/03/09 00:41:45;;;;;;;;;7.00;7.00;;;;;2.65;82.11;97258.03;5095197;28;8846;-60
2023/03/09 00:44:12;;;;;;;;;6.20;5.80;;;;;2.63;82.44;97259.97;5095263;28;8857;-60
2023/03/09 00:46:40;;;;;;;;;6.20;5.40;;;;;2.62;82.50;97265.38;5095451;28;8838;-58
2023/03/09 00:49:08;;;;;;;;;9.20;8.60;;;;;2.60;82.30;97265.53;5098107;28;8818;-60
2023/03/09 00:51:36;;;;;;;;;9.20;6.60;;;;;2.60;82.43;97264.69;5098809;28;8830;-60
2023/03/09 00:54:04;;;;;;;;;6.80;6.80;;;;;2.60;82.65;97269.94;5098292;28;8869;-60
2023/03/09 00:56:31;;;;;;;;;4.80;4.80;;;;;2.61;82.43;97268.97;5098568;28;8830;-59
2023/03/09 00:58:59;;;;;;;;;6.60;6.60;;;;;2.63;82.27;97269.66;5097960;28;8818;-59
2023/03/09 01:01:27;;;;;;;;;6.60;5.20;;;;;2.63;82.26;97275.75;5098323;28;8883;-60
2023/03/09 01:03:54;;;;;;;;;6.60;5.20;;;;;2.62;82.64;97274.09;5098556;28;8848;-60
2023/03/09 01:06:22;;;;;;;;;3.00;1.80;;;;;2.62;82.13;97281.97;5096934;28;8833;-58
2023/03/09 01:08:50;;;;;;;;;6.40;6.40;;;;;2.61;82.62;97277.69;5096881;28;8847;-61
2023/03/09 01:11:17;;;;;;;;;7.40;7.40;;;;;2.59;82.33;97295.34;5097508;28;8840;-60
2023/03/09 01:13:45;;;;;;;;;6.00;5.20;;;;;2.57;82.65;97276.28;5097371;28;8825;-60
2023/03/09 01:16:13;;;;;;;;;8.20;6.00;;;;;2.55;82.60;97283.47;5097467;28;8841;-58
2023/03/09 01:18:41;;;;;;;;;9.20;8.20;;;;;2.55;82.52;97291.34;5098312;28;8841;-60
2023/03/09 01:21:08;;;;;;;;;6.40;5.20;;;;;2.55;82.17;97293.16;5098393;28;8860;-57
2023/03/09 01:23:36;;;;;;;;;4.00;4.00;;;;;2.53;82.46;97288.06;5098325;28;8845;-58
2023/03/09 01:26:04;;;;;;;;;4.80;4.60;;;;;2.53;82.01;97288.06;5097783;28;9468;-59
2023/03/09 01:28:32;;;;;;;;;6.00;6.00;;;;;2.53;82.31;97285.44;5098356;28;8850;-60
2023/03/09 01:31:00;;;;;;;;;9.00;6.40;;;;;2.54;82.17;97279.19;5098171;28;8826;-60
2023/03/09 01:33:28;;;;;;;;;7.00;6.40;;;;;2.55;82.29;97287.88;5097696;28;8844;-59
2023/03/09 01:35:55;;;;;;;;;6.20;6.00;;;;;2.56;82.71;97290.38;5096943;28;8922;-60
2023/03/09 01:38:23;;;;;;;;;5.20;4.80;;;;;2.57;82.62;97284.16;5097814;28;8837;-59
2023/03/09 01:40:51;;;;;;;;;8.40;8.20;;;;;2.57;82.50;97276.28;5098497;28;8810;-60
2023/03/09 01:43:19;;;;;;;;;10.80;8.40;;;;;2.57;82.13;97278.91;5098009;28;8899;-59
2023/03/09 01:45:46;;;;;;;;;7.60;6.00;;;;;2.59;82.30;97270.91;5097286;28;8814;-61
2023/03/09 01:48:14;;;;;;;;;6.00;4.60;;;;;2.58;82.40;97277.94;5098121;28;8879;-58
2023/03/09 01:50:41;;;;;;;;;7.00;6.00;;;;;2.56;82.22;97284.31;5097962;28;8863;-57
2023/03/09 01:53:09;;;;;;;;;7.00;6.20;;;;;2.55;82.48;97287.88;5098028;28;8834;-59
2023/03/09 01:55:37;;;;;;;;;7.40;6.60;;;;;2.54;82.63;97291.50;5097178;28;8829;-60
2023/03/09 01:58:05;;;;;;;;;4.00;4.00;;;;;2.55;82.64;97293.16;5097995;28;8911;-59
2023/03/09 02:00:32;;;;;;;;;6.60;6.20;;;;;2.54;82.30;97310.72;5096682;28;8870;-60
2023/03/09 02:03:00;;;;;;;;;3.00;3.00;;;;;2.49;83.09;97320.78;5097606;28;8838;-60
2023/03/09 02:05:28;;;;;;;;;7.00;6.00;;;;;2.50;82.40;97325.06;5097992;28;8822;-60
2023/03/09 02:07:56;;;;;;;;;6.00;6.00;;;;;2.47;82.86;97335.84;5097675;28;8818;-57
2023/03/09 02:10:23;;;;;;;;;11.00;8.60;;;;;2.45;82.74;97339.59;5097432;28;8919;-57
2023/03/09 02:12:52;;;;;;;;;3.60;3.40;;;;;2.43;82.50;97352.84;5097853;28;8853;-59
2023/03/09 02:15:20;;;;;;;;;4.60;4.60;;;;;2.43;82.75;97352.84;5097006;28;8973;-60
2023/03/09 02:17:48;;;;;;;;;8.80;6.80;;;;;2.43;82.43;97360.72;5096007;28;8818;-58
2023/03/09 02:20:16;;;;;;;;;5.20;5.20;;;;;2.44;82.60;97354.50;5096384;28;8814;-57
2023/03/09 02:22:43;;;;;;;;;7.00;7.00;;;;;2.45;82.68;97363.22;5096022;28;8822;-58
2023/03/09 02:25:11;;;;;;;;;5.20;5.20;;;;;2.44;82.86;97366.81;5094555;28;8826;-60
2023/03/09 02:27:39;;;;;;;;;2.60;1.80;;;;;2.44;82.78;97377.31;5097403;28;8847;-60
2023/03/09 02:30:07;;;;;;;;;7.00;5.40;;;;;2.44;82.60;97383.38;5097515;28;8851;-59
2023/03/09 02:32:34;;;;;;;;;7.40;6.80;;;;;2.43;82.78;97384.34;5096857;28;8895;-60
2023/03/09 02:35:03;;;;;;;;;8.60;6.40;;;;;2.44;83.10;97391.25;5096720;28;8832;-60
2023/03/09 02:37:32;;;;;;;;;4.80;3.40;;;;;2.44;83.14;97401.75;5096999;28;8830;-59
2023/03/09 02:40:00;;;;;;;;;6.20;6.20;;;;;2.44;82.80;97404.38;5097042;28;8826;-60
2023/03/09 02:42:28;;;;;;;;;8.60;7.80;;;;;2.44;83.26;97404.38;5096865;28;8846;-60
2023/03/09 02:44:56;;;;;;;;;4.00;4.00;;;;;2.44;82.96;97407.00;5097478;28;8842;-60
2023/03/09 02:47:24;;;;;;;;;7.20;6.40;;;;;2.47;82.93;97411.16;5096878;28;8903;-60
2023/03/09 02:49:51;;;;;;;;;2.60;2.60;;;;;2.46;83.12;97418.22;5096684;28;8837;-59
2023/03/09 02:52:19;;;;;;;;;6.00;6.00;;;;;2.48;83.01;97423.31;5097041;28;8849;-60
2023/03/09 02:54:47;;;;;;;;;8.20;6.00;;;;;2.49;82.57;97420.56;5093878;28;8864;-60
2023/03/09 02:57:15;;;;;;;;;4.00;3.80;;;;;2.48;82.90;97426.78;5076153;28;8905;-60
2023/03/09 02:59:42;;;;;;;;;7.80;3.60;;;;;2.49;82.92;97431.06;5076224;28;8909;-60
2023/03/09 03:02:10;;;;;;;;;6.80;5.60;;;;;2.47;83.37;97433.00;5075848;28;8832;-60
2023/03/09 03:04:37;;;;;;;;;3.60;3.20;;;;;2.46;82.80;97431.34;5076257;28;9626;-59
2023/03/09 03:07:06;;;;;;;;;5.20;5.20;;;;;2.43;82.52;97436.03;5076144;28;9540;-60
2023/03/09 03:09:33;;;;;;;;;3.80;3.00;;;;;2.43;82.94;97426.34;5075774;28;8871;-60
2023/03/09 03:12:01;;;;;;;;;1.00;1.00;;;;;2.44;83.07;97419.31;5075260;28;8843;-60
2023/03/09 03:14:28;;;;;;;;;6.60;6.00;;;;;2.43;82.85;97431.59;5074718;28;8828;-57
2023/03/09 03:16:56;;;;;;;;;3.00;3.00;;;;;2.41;82.70;97437.97;5075095;28;8824;-58
2023/03/09 03:19:24;;;;;;;;;4.40;4.40;;;;;2.41;82.75;97438.78;5075756;28;8847;-60
2023/03/09 03:21:52;;;;;;;;;5.60;5.60;;;;;2.39;82.84;97451.22;5075790;28;8821;-60
2023/03/09 03:24:19;;;;;;;;;5.60;4.00;;;;;2.38;82.84;97475.84;5076402;28;8808;-60
2023/03/09 03:26:47;;;;;;;;;7.00;6.60;;;;;2.38;83.11;97480.22;5075595;28;8809;-60
2023/03/09 03:29:14;;;;;;;;;3.80;3.80;;;;;2.37;82.66;97470.69;5075868;28;8879;-59
2023/03/09 03:31:57;;;;;;;;;7.60;7.60;;;;;2.38;82.92;97483.69;5075506;28;8839;-59
2023/03/09 03:34:25;;;;;;;;;5.20;5.20;;;;;2.36;82.96;97477.72;5075006;28;9498;-59
2023/03/09 03:36:53;;;;;;;;;3.60;3.60;;;;;2.37;82.83;97474.16;5074768;28;8840;-59
2023/03/09 03:39:20;;;;;;;;;6.00;6.00;;;;;2.36;82.64;97466.41;5074642;28;8852;-58
2023/03/09 03:41:48;;;;;;;;;4.00;3.00;;;;;2.36;83.19;97471.66;5075132;28;8820;-60
2023/03/09 03:44:16;;;;;;;;;0.60;0.60;;;;;2.35;82.50;97478.69;5074986;28;8812;-61
2023/03/09 03:46:44;;;;;;;;;6.60;5.20;;;;;2.36;82.60;97477.72;5086507;28;8807;-57
2023/03/09 03:49:12;;;;;;;;;7.00;4.00;;;;;2.36;82.83;97480.34;5095645;28;8834;-59
2023/03/09 03:51:40;;;;;;;;;6.80;6.40;;;;;2.36;82.67;97485.59;5095303;28;8853;-58
2023/03/09 03:54:08;;;;;;;;;4.40;4.20;;;;;2.37;82.64;97489.06;5095437;28;8845;-60
2023/03/09 03:56:35;;;;;;;;;5.20;4.40;;;;;2.39;82.93;97508.16;5095496;28;8842;-60
2023/03/09 03:59:04;;;;;;;;;4.00;4.00;;;;;2.39;82.67;97514.25;5095124;28;8849;-60
2023/03/09 04:01:35;;;;;;;;;6.40;6.20;;;;;2.40;82.84;97508.03;5095237;28;8833;-59
2023/03/09 04:04:02;;;;;;;;;2.40;1.20;;;;;2.41;82.88;97512.31;5095486;28;9651;-59
2023/03/09 04:06:32;;;;;;;;;3.40;3.40;;;;;2.41;83.12;97520.19;5095154;28;8849;-60
2023/03/09 04:08:59;;;;;;;;;6.20;4.80;;;;;2.40;82.50;97515.91;5095433;28;8861;-60
2023/03/09 04:11:28;;;;;;;;;4.00;3.40;;;;;2.42;82.51;97526.28;5095156;28;8844;-59
2023/03/09 04:13:56;;;;;;;;;5.20;4.00;;;;;2.42;82.75;97545.47;5095563;28;8844;-59
2023/03/09 04:16:24;;;;;;;;;6.40;6.00;;;;;2.42;82.65;97545.47;5095219;28;9495;-61
2023/03/09 04:18:52;;;;;;;;;7.00;6.20;;;;;2.44;82.54;97551.41;5094557;28;8840;-60
2023/03/09 04:21:19;;;;;;;;;6.20;6.20;;;;;2.44;82.87;97547.97;5094796;28;8841;-60
2023/03/09 04:23:47;;;;;;;;;6.20;4.80;;;;;2.42;82.41;97548.09;5097681;28;8832;-60
2023/03/09 04:26:15;;;;;;;;;9.60;9.40;;;;;2.41;82.88;97554.31;5098739;28;8818;-61
2023/03/09 04:28:45;;;;;;;;;4.80;4.80;;;;;2.41;82.34;97550.88;5099129;28;8846;-60
2023/03/09 04:31:13;;;;;;;;;9.20;7.40;;;;;2.41;82.78;97559.56;5099211;28;8822;-59
2023/03/09 04:33:42;;;;;;;;;3.80;3.00;;;;;2.43;83.24;97554.19;5098267;28;8850;-60
2023/03/09 04:36:10;;;;;;;;;2.80;2.20;;;;;2.44;82.82;97558.47;5098536;28;8916;-57
2023/03/09 04:38:38;;;;;;;;;6.40;4.00;;;;;2.44;82.84;97566.38;5098774;28;9543;-60
2023/03/09 04:41:05;;;;;;;;;6.40;4.80;;;;;2.43;82.61;97562.88;5098574;28;8818;-60
2023/03/09 04:43:33;;;;;;;;;5.60;3.80;;;;;2.42;83.00;97561.22;5098329;28;8901;-59
2023/03/09 04:46:01;;;;;;;;;3.20;3.00;;;;;2.41;82.94;97564.81;5098307;28;8834;-60
2023/03/09 04:48:28;;;;;;;;;6.00;6.00;;;;;2.41;82.47;97580.56;5098744;28;8836;-60
2023/03/09 04:50:56;;;;;;;;;9.40;9.00;;;;;2.42;82.60;97579.63;5098010;28;8854;-59
2023/03/09 04:53:24;;;;;;;;;11.00;8.20;;;;;2.42;82.44;97590.13;5098217;28;8865;-60
2023/03/09 04:55:52;;;;;;;;;9.20;8.80;;;;;2.42;82.12;97602.44;5097765;28;8838;-59
2023/03/09 04:58:20;;;;;;;;;5.60;4.80;;;;;2.40;82.23;97599.94;5098264;28;8854;-60
2023/03/09 05:00:48;;;;;;;;;6.20;5.60;;;;;2.41;82.53;97611.28;5099018;28;8923;-59
2023/03/09 05:03:15;;;;;;;;;9.20;6.80;;;;;2.41;82.35;97601.59;5097556;28;8857;-60
2023/03/09 05:05:43;;;;;;;;;10.00;9.80;;;;;2.42;82.59;97598.00;5097843;28;8859;-60
2023/03/09 05:08:10;;;;;;;;;3.60;3.60;;;;;2.43;82.50;97591.78;5098431;28;8853;-58
2023/03/09 05:10:38;;;;;;;;;10.00;9.40;;;;;2.44;82.46;97596.06;5098139;28;8829;-60
2023/03/09 05:13:06;;;;;;;;;9.20;6.00;;;;;2.45;82.40;97608.25;5097836;28;8830;-58
2023/03/09 05:15:34;;;;;;;;;7.40;6.80;;;;;2.46;82.52;97615.16;5097484;28;9607;-60
2023/03/09 05:18:02;;;;;;;;;9.80;6.00;;;;;2.48;82.89;97618.47;5096806;28;8872;-60
2023/03/09 05:20:30;;;;;;;;;6.00;5.20;;;;;2.50;82.15;97616.56;5097327;28;9522;-60
2023/03/09 05:22:57;;;;;;;;;12.80;6.60;;;;;2.53;82.38;97626.81;5097653;28;8900;-60
2023/03/09 05:25:25;;;;;;;;;5.60;4.00;;;;;2.53;82.36;97621.56;5097773;28;8913;-60
2023/03/09 05:27:53;;;;;;;;;7.40;7.00;;;;;2.53;82.53;97624.19;5097075;28;8853;-60
2023/03/09 05:30:20;;;;;;;;;9.00;7.00;;;;;2.54;82.67;97627.63;5097456;28;8902;-60
2023/03/09 05:32:49;;;;;;;;;8.00;8.00;;;;;2.57;82.12;97632.66;5098295;28;9530;-61
2023/03/09 05:35:17;;;;;;;;;8.20;6.80;;;;;2.59;82.86;97628.09;5098128;28;9590;-60
2023/03/09 05:37:45;;;;;;;;;7.00;6.40;;;;;2.61;82.35;97631.41;5097644;28;8825;-59
2023/03/09 05:40:14;;;;;;;;;5.80;3.80;;;;;2.61;82.73;97634.88;5097442;28;8798;-60
2023/03/09 05:42:42;;;;;;;;;4.00;3.40;;;;;2.63;82.98;97637.34;5097637;28;8845;-60
2023/03/09 05:45:10;;;;;;;;;7.00;6.00;;;;;2.62;82.62;97636.53;5097956;28;8848;-59
2023/03/09 05:47:39;;;;;;;;;13.40;12.40;;;;;2.62;82.32;97654.94;5097665;28;8834;-59
2023/03/09 05:50:07;;;;;;;;;9.60;8.20;;;;;2.63;82.14;97663.63;5097755;28;8837;-60
2023/03/09 05:52:35;;;;;;;;;9.80;9.20;;;;;2.62;82.43;97670.69;5097367;28;8830;-57
2023/03/09 05:55:02;;;;;;;;;9.40;7.80;;;;;2.62;82.67;97673.31;5097684;28;8845;-60
2023/03/09 05:57:30;;;;;;;;;14.60;12.60;;;;;2.60;82.63;97670.00;5097491;28;8923;-58
2023/03/09 05:59:58;;;;;;;;;9.60;8.60;;;;;2.61;82.67;97684.78;5097021;28;8830;-60
2023/03/09 06:02:26;;;;;;;;;6.20;6.20;;;;;2.60;82.74;97688.38;5096330;28;8818;-60
2023/03/09 06:04:54;;;;;;;;;10.60;10.60;;;;;2.62;82.45;97698.72;5096594;28;8826;-58
2023/03/09 06:07:21;;;;;;;;;6.60;6.20;;;;;2.62;82.34;97696.94;5096794;28;8833;-58
2023/03/09 06:09:49;;;;;;;;;10.00;8.60;;;;;2.64;83.15;97710.78;5093753;28;8856;-61
2023/03/09 06:12:18;;;;;;;;;12.00;10.60;;;;;2.64;82.62;97708.16;5094217;28;8956;-60
2023/03/09 06:14:45;;;;;;;;;12.00;10.80;;;;;2.64;82.65;97718.66;5095241;28;8847;-59
2023/03/09 06:17:13;;;;;;;;;9.40;8.20;;;;;2.68;83.05;97714.00;5095393;28;8875;-60
2023/03/09 06:19:41;;;;;;;;;9.20;8.60;;;;;2.69;82.66;97713.88;5095418;28;8845;-60
2023/03/09 06:22:09;;;;;;;;;13.00;9.80;;;;;2.69;82.33;97715.66;5095795;28;8821;-60
2023/03/09 06:24:37;;;;;;;;;8.40;6.60;;;;;2.71;83.03;97718.97;5095068;28;8868;-61
2023/03/09 06:27:05;;;;;;;;;6.20;5.20;;;;;2.72;82.60;97725.91;5095183;28;8832;-58
2023/03/09 06:29:32;;;;;;;;;12.60;10.80;;;;;2.74;83.11;97726.63;5093303;28;8888;-60
2023/03/09 06:32:00;;;;;;;;;15.80;14.40;;;;;2.74;82.43;97727.44;5091871;28;9538;-60
2023/03/09 06:34:28;;;;;;;;;8.20;8.20;;;;;2.75;82.44;97736.16;5092082;28;8825;-60
2023/03/09 06:36:56;;;;;;;;;12.00;9.60;;;;;2.75;82.22;97744.03;5091461;28;8875;-59
2023/03/09 06:39:23;;;;;;;;;6.60;6.60;;;;;2.75;82.45;97746.66;5092472;28;8864;-61
2023/03/09 06:41:51;;;;;;;;;15.20;12.40;;;;;2.77;83.08;97750.00;5091986;28;8857;-60
2023/03/09 06:44:19;;;;;;;;;15.40;13.40;;;;;2.79;82.52;97748.91;5092531;28;8900;-60
2023/03/09 06:46:47;;;;;;;;;11.20;11.20;;;;;2.79;82.81;97743.66;5092144;28;8841;-58
2023/03/09 06:49:15;;;;;;;;;12.40;9.40;;;;;2.79;82.89;97738.41;5092732;28;8851;-60
2023/03/09 06:51:43;;;;;;;;;15.00;13.40;;;;;2.81;83.05;97746.16;5090905;28;8851;-59
2023/03/09 06:54:10;;;;;;;;;14.00;14.00;;;;;2.83;82.66;97760.00;5092031;28;8837;-60
2023/03/09 06:56:38;;;;;;;;;8.80;7.60;;;;;2.81;82.90;97757.50;5091130;28;8829;-59
2023/03/09 06:59:06;;;;;;;;;15.20;12.80;;;;;2.79;82.39;97764.69;5091294;28;8858;-58
2023/03/09 07:01:34;;;;;;;;;6.00;5.00;;;;;2.77;82.52;97750.84;5090475;28;8869;-60
2023/03/09 07:04:02;;;;;;;;;9.00;7.40;;;;;2.78;82.84;97763.00;5090291;28;8841;-60
2023/03/09 07:06:30;;;;;;;;;10.00;10.00;;;;;2.79;82.21;97764.69;5091240;28;8841;-60
2023/03/09 07:08:58;;;;;;;;;13.80;10.80;;;;;2.83;82.40;97757.38;5092195;28;8830;-60
2023/03/09 07:11:26;;;;;;;;;10.20;9.80;;;;;2.85;82.47;97752.81;5091791;28;8895;-60
2023/03/09 07:13:54;;;;;;;;;11.40;10.20;;;;;2.89;82.79;97760.31;5092824;28;8961;-60
2023/03/09 07:16:22;;;;;;;;;12.40;10.60;;;;;2.93;82.02;97767.00;5091585;28;8834;-60
2023/03/09 07:18:50;;;;;;;;;8.00;6.60;;;;;2.98;82.54;97761.34;5090602;28;8911;-59
2023/03/09 07:21:18;;;;;;;;;13.60;11.80;;;;;3.06;82.04;97762.38;5091309;28;8981;-59
2023/03/09 07:23:47;;;;;;;;;12.00;12.00;;;;;3.17;82.27;97753.59;5091587;28;8964;-60
2023/03/09 07:26:14;;;;;;;;;7.00;6.40;;;;;3.24;82.19;97763.44;5090759;28;8858;-60
2023/03/09 07:28:42;;;;;;;;;11.00;9.80;;;;;3.29;82.12;97760.41;5090263;28;8865;-60
2023/03/09 07:31:10;;;;;;;;;8.20;6.60;;;;;3.32;81.68;97774.13;5090975;28;8864;-60
2023/03/09 07:33:38;;;;;;;;;6.00;4.00;;;;;3.34;81.69;97777.44;5090861;28;8830;-61
2023/03/09 07:36:06;;;;;;;;;13.80;9.40;;;;;3.35;81.94;97779.16;5089588;28;9066;-60
2023/03/09 07:38:34;;;;;;;;;7.80;7.40;;;;;3.40;82.10;97782.19;5090007;28;8838;-60
2023/03/09 07:41:02;;;;;;;;;8.00;6.60;;;;;3.42;81.64;97780.25;5089670;28;8956;-60
2023/03/09 07:43:29;;;;;;;;;9.00;7.80;;;;;3.48;81.62;97778.94;5090271;28;8826;-60
2023/03/09 07:45:57;;;;;;;;;8.20;7.60;;;;;3.53;81.85;97793.34;5091004;28;8830;-60
2023/03/09 07:48:25;;;;;;;;;9.60;8.60;;;;;3.60;81.27;97798.91;5091476;28;9031;-59
2023/03/09 07:50:53;;;;;;;;;13.80;12.60;;;;;3.64;81.34;97818.75;5091633;28;8837;-61
2023/03/09 07:53:21;;;;;;;;;9.80;8.00;;;;;3.66;81.12;97814.16;5090437;28;8842;-60
2023/03/09 07:55:49;;;;;;;;;9.60;6.40;;;;;3.67;80.76;97814.03;5091251;28;8915;-60
2023/03/09 07:58:17;;;;;;;;;3.60;3.60;;;;;3.69;81.08;97821.81;5093544;28;8895;-60
2023/03/09 08:00:46;;;;;;;;;6.20;6.00;;;;;3.70;80.77;97821.66;5095162;28;8832;-60
2023/03/09 08:03:13;;;;;;;;;6.20;4.60;;;;;3.75;81.21;97820.28;5093931;28;8837;-60
2023/03/09 08:05:41;;;;;;;;;5.80;5.20;;;;;3.82;81.30;97823.25;5093480;28;8869;-60
2023/03/09 08:08:11;;;;;;;;;8.20;6.00;;;;;3.87;81.17;97837.66;5093188;28;8872;-60
2023/03/09 08:10:39;;;;;;;;;7.40;6.20;;;;;3.91;81.12;97838.25;5094015;28;8841;-60
2023/03/09 08:13:08;;;;;;;;;8.80;7.40;;;;;3.92;80.76;97839.91;5094082;28;8829;-60
2023/03/09 08:15:36;;;;;;;;;13.00;9.60;;;;;3.94;80.67;97846.72;5094015;28;8987;-60
2023/03/09 08:18:04;;;;;;;;;12.20;9.40;;;;;3.94;81.00;97851.97;5094639;28;8841;-60
2023/03/09 08:20:32;;;;;;;;;10.00;9.00;;;;;3.95;80.68;97850.19;5095052;28;8844;-61
2023/03/09 08:23:00;;;;;;;;;9.40;7.40;;;;;3.95;80.71;97858.91;5095422;28;8849;-60
2023/03/09 08:25:28;;;;;;;;;9.80;9.20;;;;;3.94;80.94;97862.50;5095557;28;8855;-61
2023/03/09 08:27:57;;;;;;;;;9.40;8.60;;;;;3.96;81.01;97867.66;5094968;28;8872;-59
2023/03/09 08:30:24;;;;;;;;;12.80;12.40;;;;;3.95;80.90;97876.50;5095443;28;8870;-60
2023/03/09 08:32:52;;;;;;;;;11.20;10.20;;;;;3.95;81.29;97869.44;5096009;28;8917;-60
2023/03/09 08:35:20;;;;;;;;;11.40;10.20;;;;;3.96;81.06;97880.81;5096539;28;8845;-59
2023/03/09 08:37:48;;;;;;;;;11.60;10.00;;;;;3.96;81.13;97891.34;5096900;28;8955;-59
2023/03/09 08:40:16;;;;;;;;;12.60;11.40;;;;;3.97;80.79;97901.72;5096477;28;8903;-60
2023/03/09 08:42:44;;;;;;;;;3.60;2.20;;;;;3.96;81.10;97909.78;5096554;28;8841;-60
2023/03/09 08:45:13;;;;;;;;;4.00;2.60;;;;;3.99;81.08;97910.34;5095436;28;8848;-59
2023/03/09 08:47:40;;;;;;;;;12.40;9.60;;;;;4.01;81.61;97904.91;5095934;28;8844;-61
2023/03/09 08:50:09;;;;;;;;;11.60;9.00;;;;;4.02;81.28;97906.59;5093834;28;8825;-60
2023/03/09 08:52:39;;;;;;;;;8.20;7.80;;;;;4.04;80.92;97915.22;5094887;28;8857;-60
2023/03/09 08:55:07;;;;;;;;;12.20;11.40;;;;;4.06;81.32;97919.38;5093672;28;9612;-60
2023/03/09 08:57:36;;;;;;;;;9.20;9.20;;;;;4.09;80.85;97926.16;5092647;28;8849;-60
2023/03/09 09:00:04;;;;;;;;;21.20;13.80;;;;;4.08;81.28;97927.97;5093383;28;8842;-60
2023/03/09 09:02:32;;;;;;;;;14.20;13.40;;;;;4.06;81.28;97934.34;5092775;28;8822;-60
2023/03/09 09:05:01;;;;;;;;;15.80;12.00;;;;;4.05;81.33;97933.50;5093422;28;8829;-59
2023/03/09 09:07:29;;;;;;;;;14.20;13.00;;;;;4.06;81.47;97936.97;5092592;28;8837;-60
2023/03/09 09:09:58;;;;;;;;;12.40;12.40;;;;;4.06;81.18;97935.19;5092308;28;9172;-60
2023/03/09 09:12:27;;;;;;;;;13.40;11.20;;;;;4.10;81.42;97948.91;5093381;28;8826;-60
2023/03/09 09:14:56;;;;;;;;;11.00;10.60;;;;;4.13;81.27;97948.66;5093574;28;8864;-60
2023/03/09 09:17:24;;;;;;;;;14.20;12.80;;;;;4.15;81.23;97951.97;5092397;28;8830;-60
2023/03/09 09:19:52;;;;;;;;;14.80;12.40;;;;;4.15;81.34;97958.09;5092335;28;8934;-60
2023/03/09 09:22:21;;;;;;;;;14.20;12.40;;;;;4.16;81.46;97965.03;5093334;28;9531;-60
2023/03/09 09:24:49;;;;;;;;;16.20;13.80;;;;;4.19;80.99;97977.09;5092654;28;8904;-60
2023/03/09 09:27:17;;;;;;;;;18.00;14.20;;;;;4.19;81.30;97977.91;5092716;28;8944;-60
2023/03/09 09:29:45;;;;;;;;;15.80;12.60;;;;;4.18;80.70;97980.69;5093430;28;8818;-60
2023/03/09 09:32:13;;;;;;;;;23.20;15.60;;;;;4.15;81.27;97978.31;5093807;28;8814;-60
2023/03/09 09:34:42;;;;;;;;;22.00;16.40;;;;;4.13;80.93;97972.34;5094258;28;8946;-60
2023/03/09 09:37:11;;;;;;;;;9.80;8.60;;;;;4.10;81.46;97983.97;5093914;28;8841;-60
2023/03/09 09:39:39;;;;;;;;;5.20;2.60;;;;;4.11;81.03;97984.81;5093803;28;8960;-60
2023/03/09 09:42:08;;;;;;;;;17.00;15.00;;;;;4.11;81.32;97984.81;5094703;28;8837;-60
2023/03/09 09:44:36;;;;;;;;;10.80;10.80;;;;;4.10;81.15;97997.13;5093603;28;8972;-60
2023/03/09 09:47:04;;;;;;;;;9.20;9.00;;;;;4.10;81.15;97994.50;5093970;28;8818;-60
2023/03/09 09:49:32;;;;;;;;;12.00;9.40;;;;;4.14;81.09;97995.94;5095279;28;9531;-60
2023/03/09 09:52:00;;;;;;;;;14.00;12.60;;;;;4.23;81.60;97986.38;5094929;28;8826;-60
2023/03/09 09:54:28;;;;;;;;;16.20;12.60;;;;;4.28;80.96;97994.75;5094744;28;8927;-59
2023/03/09 09:56:56;;;;;;;;;9.20;9.20;;;;;4.30;80.73;97991.00;5092403;28;8838;-60
2023/03/09 09:59:24;;;;;;;;;15.20;12.00;;;;;4.35;80.54;98001.16;5092723;28;8860;-59
2023/03/09 10:01:56;;;;;;;;;16.00;14.00;;;;;4.40;80.81;98006.88;5091342;28;9271;-60
2023/03/09 10:04:24;;;;;;;;;11.00;9.40;;;;;4.46;80.54;97998.41;5092187;28;8837;-60
2023/03/09 10:06:53;;;;;;;;;13.60;10.40;;;;;4.50;80.52;97997.19;5092176;28;8840;-60
2023/03/09 10:09:20;;;;;;;;;12.40;12.00;;;;;4.53;80.88;97999.56;5091572;28;8853;-60
2023/03/09 10:11:49;;;;;;;;;8.20;7.40;;;;;4.57;80.29;98003.63;5092241;28;8857;-60
2023/03/09 10:14:19;;;;;;;;;13.00;12.40;;;;;4.59;80.12;98006.94;5091321;28;8845;-61
2023/03/09 10:16:47;;;;;;;;;15.80;15.20;;;;;4.63;80.39;98008.38;5090690;28;8970;-61
2023/03/09 10:19:15;;;;;;;;;19.40;13.80;;;;;4.66;80.40;98014.22;5092422;28;8849;-60
2023/03/09 10:21:43;;;;;;;;;9.00;7.00;;;;;4.68;80.42;98008.78;5091759;28;8908;-59
2023/03/09 10:24:12;;;;;;;;;13.40;12.20;;;;;4.67;80.55;98028.19;5092688;28;8898;-60
2023/03/09 10:26:40;;;;;;;;;11.40;9.60;;;;;4.65;80.43;98035.41;5092931;28;9538;-60
2023/03/09 10:29:08;;;;;;;;;15.60;15.00;;;;;4.62;80.72;98033.88;5091972;28;8911;-60
2023/03/09 10:31:36;;;;;;;;;9.00;6.40;;;;;4.64;80.84;98046.94;5092957;28;8845;-61
2023/03/09 10:34:04;;;;;;;;;3.00;0.60;;;;;4.67;80.82;98051.91;5092350;28;8829;-61
2023/03/09 10:36:33;;;;;;;;;14.60;12.00;;;;;4.69;80.31;98050.81;5092437;28;8841;-60
2023/03/09 10:39:01;;;;;;;;;17.00;16.60;;;;;4.71;80.46;98059.44;5092183;28;8933;-60
2023/03/09 10:41:29;;;;;;;;;10.60;10.60;;;;;4.73;80.75;98059.31;5091542;28;8949;-60
2023/03/09 10:43:58;;;;;;;;;10.40;9.60;;;;;4.75;80.44;98049.47;5092104;28;8856;-60
2023/03/09 10:46:26;;;;;;;;;12.60;11.40;;;;;4.76;80.29;98032.66;5092124;28;8951;-60
2023/03/09 10:48:56;;;;;;;;;11.20;10.60;;;;;4.76;80.46;98035.31;5090657;28;8833;-60
2023/03/09 10:51:24;;;;;;;;;16.80;15.80;;;;;4.75;80.79;98037.13;5091473;28;8852;-59
2023/03/09 10:53:53;;;;;;;;;16.60;12.60;;;;;4.77;80.26;98036.97;5091559;28;8849;-60
2023/03/09 10:56:22;;;;;;;;;12.20;11.00;;;;;4.79;80.15;98054.31;5092796;28;8841;-60
2023/03/09 10:58:50;;;;;;;;;7.00;6.60;;;;;4.79;80.20;98053.50;5091770;28;8838;-61
2023/03/09 11:01:18;;;;;;;;;15.00;13.40;;;;;4.79;80.49;98056.16;5091423;28;8830;-60
2023/03/09 11:03:46;;;;;;;;;13.00;11.20;;;;;4.80;80.12;98061.25;5092494;28;8830;-61
2023/03/09 11:06:14;;;;;;;;;9.60;9.60;;;;;4.82;80.28;98069.06;5092698;28;8826;-59
2023/03/09 11:08:42;;;;;;;;;16.40;13.00;;;;;4.82;80.15;98056.72;5092831;28;8838;-60
2023/03/09 11:11:30;;;;;;;;;12.60;11.60;;;;;4.85;80.34;98061.72;5092475;28;8873;-60
2023/03/09 11:13:58;;;;;;;;;17.40;16.00;;;;;4.85;80.03;98072.25;5092756;28;8834;-60
2023/03/09 11:16:26;;;;;;;;;14.00;12.20;;;;;4.83;80.28;98079.47;5092414;28;8956;-60
2023/03/09 11:18:54;;;;;;;;;10.80;10.80;;;;;4.83;80.22;98089.16;5092146;28;8919;-60
2023/03/09 11:21:22;;;;;;;;;21.00;15.20;;;;;4.84;80.60;98090.84;5092217;28;8834;-59
2023/03/09 11:23:50;;;;;;;;;12.60;12.20;;;;;4.85;80.05;98098.63;5092657;28;8853;-58
2023/03/09 11:26:18;;;;;;;;;12.20;10.00;;;;;4.87;80.71;98095.88;5092470;28;8821;-59
2023/03/09 11:28:46;;;;;;;;;6.20;3.20;;;;;4.88;80.29;98100.16;5092220;28;8996;-60
2023/03/09 11:31:15;;;;;;;;;9.00;7.40;;;;;4.85;80.64;98097.78;5092301;28;9507;-60
2023/03/09 11:33:43;;;;;;;;;13.80;13.40;;;;;4.82;80.42;98088.34;5093934;28;8846;-61
2023/03/09 11:36:11;;;;;;;;;9.60;9.40;;;;;4.81;80.93;98102.50;5093890;28;9577;-59
2023/03/09 11:38:39;;;;;;;;;11.60;6.80;;;;;4.81;80.85;98102.50;5093686;28;8903;-60
2023/03/09 11:41:07;;;;;;;;;9.60;9.60;;;;;4.85;80.72;98118.88;5092425;28;8833;-58
2023/03/09 11:43:35;;;;;;;;;7.40;4.80;;;;;4.88;80.65;98103.63;5091921;28;8850;-58
2023/03/09 11:46:02;;;;;;;;;13.40;10.20;;;;;4.91;80.11;98110.44;5092237;28;8868;-58
2023/03/09 11:48:31;;;;;;;;;10.40;9.20;;;;;4.93;80.66;98109.34;5090467;28;8935;-58